createdAt,value
2018-08-03T00:02:08.149Z,19.60
2018-08-03T00:04:36.361Z,19.60
2018-08-03T00:07:04.747Z,19.50
2018-08-03T00:09:32.905Z,19.50
2018-08-03T00:12:01.059Z,19.50
2018-08-03T00:14:29.269Z,19.50
2018-08-03T00:16:57.600Z,19.50
2018-08-03T00:19:25.796Z,19.40
2018-08-03T00:21:54.088Z,19.40
2018-08-03T00:24:22.251Z,19.30
2018-08-03T00:26:50.428Z,19.30
2018-08-03T00:29:18.603Z,19.30
2018-08-03T00:31:46.799Z,19.20
2018-08-03T00:34:14.955Z,19.20
2018-08-03T00:36:43.106Z,19.20
2018-08-03T00:39:11.672Z,19.20
2018-08-03T00:41:39.966Z,19.20
2018-08-03T00:44:08.123Z,19.10
2018-08-03T00:46:36.278Z,19.10
2018-08-03T00:49:04.456Z,19.10
2018-08-03T00:51:32.631Z,19.00
2018-08-03T00:54:00.828Z,19.00
2018-08-03T00:56:28.996Z,19.00
2018-08-03T00:58:57.164Z,19.00
2018-08-03T01:01:25.335Z,19.00
2018-08-03T01:03:53.503Z,19.00
2018-08-03T01:06:21.648Z,19.00
2018-08-03T01:08:49.775Z,19.00
2018-08-03T01:11:17.916Z,19.00
2018-08-03T01:13:46.071Z,18.90
2018-08-03T01:16:14.232Z,18.90
2018-08-03T01:18:42.440Z,18.80
2018-08-03T01:21:10.585Z,18.80
2018-08-03T01:23:38.699Z,18.80
2018-08-03T01:26:06.868Z,18.80
2018-08-03T01:28:35.026Z,18.80
2018-08-03T01:31:03.203Z,18.80
2018-08-03T01:33:31.380Z,18.70
2018-08-03T01:35:59.696Z,18.70
2018-08-03T01:38:28.201Z,18.70
2018-08-03T01:40:56.353Z,18.70
2018-08-03T01:43:24.507Z,18.60
2018-08-03T01:45:52.631Z,18.60
2018-08-03T01:48:21.214Z,18.60
2018-08-03T01:50:49.380Z,18.50
2018-08-03T01:53:17.504Z,18.50
2018-08-03T01:55:45.650Z,18.50
2018-08-03T01:58:13.894Z,18.50
2018-08-03T02:00:42.043Z,18.50
2018-08-03T02:03:10.946Z,18.50
2018-08-03T02:05:39.054Z,18.50
2018-08-03T02:08:07.206Z,18.50
2018-08-03T02:10:35.379Z,18.50
2018-08-03T02:13:03.559Z,18.50
2018-08-03T02:15:31.682Z,18.40
2018-08-03T02:17:59.828Z,18.40
2018-08-03T02:20:27.986Z,18.40
2018-08-03T02:22:56.142Z,18.40
2018-08-03T02:25:24.316Z,18.30
2018-08-03T02:27:52.460Z,18.30
2018-08-03T02:30:20.682Z,18.30
2018-08-03T02:32:48.832Z,18.30
2018-08-03T02:35:17.019Z,18.30
2018-08-03T02:37:46.038Z,18.30
2018-08-03T02:40:14.247Z,18.30
2018-08-03T02:42:42.388Z,18.30
2018-08-03T02:45:10.560Z,18.30
2018-08-03T02:47:38.761Z,18.20
2018-08-03T02:50:06.995Z,18.20
2018-08-03T02:52:35.176Z,18.20
2018-08-03T02:55:03.436Z,18.20
2018-08-03T02:57:31.610Z,18.10
2018-08-03T02:59:59.855Z,18.10
2018-08-03T03:02:28.064Z,18.10
2018-08-03T03:04:56.260Z,18.10
2018-08-03T03:07:24.526Z,18.10
2018-08-03T03:09:52.821Z,18.00
2018-08-03T03:12:21.004Z,18.00
2018-08-03T03:14:49.212Z,18.00
2018-08-03T03:17:17.367Z,18.00
2018-08-03T03:19:45.591Z,18.00
2018-08-03T03:22:13.741Z,18.00
2018-08-03T03:24:41.907Z,18.00
2018-08-03T03:27:10.061Z,18.00
2018-08-03T03:29:38.219Z,18.00
2018-08-03T03:32:06.371Z,17.90
2018-08-03T03:34:34.592Z,17.90
2018-08-03T03:37:02.800Z,17.90
2018-08-03T03:39:30.991Z,17.90
2018-08-03T03:41:59.178Z,17.90
2018-08-03T03:44:27.383Z,17.90
2018-08-03T03:46:55.588Z,17.90
2018-08-03T03:49:23.937Z,17.90
2018-08-03T03:51:52.113Z,17.90
2018-08-03T03:54:20.292Z,17.90
2018-08-03T03:56:48.474Z,17.80
2018-08-03T03:59:16.677Z,17.70
2018-08-03T04:01:44.847Z,17.70
2018-08-03T04:04:13.054Z,17.70
2018-08-03T04:06:41.228Z,17.70
2018-08-03T04:09:11.352Z,17.70
2018-08-03T04:11:39.719Z,17.80
2018-08-03T04:14:07.897Z,17.80
2018-08-03T04:16:36.568Z,17.80
2018-08-03T04:19:04.743Z,17.90
2018-08-03T04:21:32.907Z,17.90
2018-08-03T04:24:01.101Z,17.90
2018-08-03T04:26:29.303Z,17.90
2018-08-03T04:28:57.633Z,17.90
2018-08-03T04:31:25.985Z,18.00
2018-08-03T04:33:54.261Z,18.00
2018-08-03T04:36:22.433Z,18.10
2018-08-03T04:38:50.724Z,18.10
2018-08-03T04:41:18.850Z,18.10
2018-08-03T04:43:47.001Z,18.10
2018-08-03T04:46:15.184Z,18.20
2018-08-03T04:48:43.461Z,18.20
2018-08-03T04:51:11.574Z,18.20
2018-08-03T04:53:39.733Z,18.20
2018-08-03T04:56:08.009Z,18.20
2018-08-03T04:58:36.207Z,18.20
2018-08-03T05:01:04.413Z,18.20
2018-08-03T05:03:32.647Z,18.30
2018-08-03T05:06:00.888Z,18.30
2018-08-03T05:08:29.065Z,18.40
2018-08-03T05:10:57.257Z,18.50
2018-08-03T05:13:25.457Z,18.60
2018-08-03T05:15:53.619Z,18.70
2018-08-03T05:18:21.794Z,18.80
2018-08-03T05:20:49.938Z,18.90
2018-08-03T05:23:18.136Z,19.10
2018-08-03T05:25:46.321Z,19.20
2018-08-03T05:28:14.506Z,19.20
2018-08-03T05:30:42.647Z,19.30
2018-08-03T05:33:10.939Z,19.40
2018-08-03T05:35:39.157Z,19.60
2018-08-03T05:38:07.316Z,19.70
2018-08-03T05:40:35.458Z,19.90
2018-08-03T05:43:03.906Z,20.30
2018-08-03T05:45:32.112Z,20.90
2018-08-03T05:48:00.210Z,21.40
2018-08-03T05:50:28.480Z,21.90
2018-08-03T05:52:56.655Z,22.20
2018-08-03T05:55:24.886Z,22.60
2018-08-03T05:57:53.130Z,23.10
2018-08-03T06:00:21.267Z,23.30
2018-08-03T06:02:49.604Z,23.60
2018-08-03T06:05:17.844Z,23.80
2018-08-03T06:07:46.015Z,23.90
2018-08-03T06:10:14.170Z,24.30
2018-08-03T06:12:42.299Z,24.40
2018-08-03T06:15:11.187Z,24.80
2018-08-03T06:17:40.266Z,24.90
2018-08-03T06:20:10.031Z,24.70
2018-08-03T06:22:38.206Z,24.90
2018-08-03T06:25:07.738Z,25.20
2018-08-03T06:27:35.947Z,25.40
2018-08-03T06:30:04.625Z,25.50
2018-08-03T06:32:32.778Z,25.60
2018-08-03T06:35:00.938Z,25.70
2018-08-03T06:37:29.100Z,26.00
2018-08-03T06:39:57.278Z,26.30
2018-08-03T06:42:25.422Z,26.80
2018-08-03T06:44:53.580Z,26.90
2018-08-03T06:47:21.745Z,27.30
2018-08-03T06:49:49.919Z,27.10
2018-08-03T06:52:18.119Z,27.40
2018-08-03T06:54:46.460Z,27.60
2018-08-03T06:57:14.666Z,27.70
2018-08-03T06:59:42.840Z,27.50
2018-08-03T07:02:11.149Z,27.60
2018-08-03T07:04:39.361Z,27.80
2018-08-03T07:07:07.551Z,27.80
2018-08-03T07:09:35.688Z,27.70
2018-08-03T07:12:03.825Z,27.50
2018-08-03T07:14:32.047Z,27.70
2018-08-03T07:17:00.131Z,27.90
2018-08-03T07:19:28.331Z,28.00
2018-08-03T07:21:56.508Z,27.80
2018-08-03T07:24:24.693Z,27.40
2018-08-03T07:26:53.478Z,27.70
2018-08-03T07:29:21.594Z,28.10
2018-08-03T07:31:50.111Z,28.50
2018-08-03T07:34:18.300Z,28.20
2018-08-03T07:36:46.551Z,28.30
2018-08-03T07:39:15.095Z,28.20
2018-08-03T07:41:43.288Z,27.90
2018-08-03T07:44:11.470Z,27.80
2018-08-03T07:46:40.566Z,28.30
2018-08-03T07:49:08.772Z,28.10
2018-08-03T07:51:36.979Z,28.20
2018-08-03T07:54:05.122Z,28.80
2018-08-03T07:56:33.287Z,28.90
2018-08-03T07:59:01.457Z,29.00
2018-08-03T08:01:29.627Z,28.70
2018-08-03T08:03:57.791Z,29.10
2018-08-03T08:06:25.971Z,29.30
2018-08-03T08:08:54.144Z,29.60
2018-08-03T08:11:22.300Z,29.70
2018-08-03T08:13:50.608Z,29.70
2018-08-03T08:16:19.695Z,29.70
2018-08-03T08:18:47.865Z,29.40
2018-08-03T08:21:16.028Z,29.60
2018-08-03T08:23:44.185Z,29.50
2018-08-03T08:26:12.642Z,29.30
2018-08-03T08:28:40.751Z,29.30
2018-08-03T08:31:08.904Z,29.20
2018-08-03T08:33:37.037Z,29.50
2018-08-03T08:36:05.188Z,29.90
2018-08-03T08:38:33.372Z,30.10
2018-08-03T08:41:01.556Z,30.30
2018-08-03T08:43:29.766Z,30.70
2018-08-03T08:45:57.842Z,30.70
2018-08-03T08:48:25.997Z,30.40
2018-08-03T08:50:54.238Z,30.50
2018-08-03T08:53:22.444Z,30.40
2018-08-03T08:55:50.577Z,30.20
2018-08-03T08:58:18.725Z,30.10
2018-08-03T09:00:46.939Z,29.90
2018-08-03T09:03:15.103Z,29.80
2018-08-03T09:05:43.283Z,29.80
2018-08-03T09:08:11.735Z,29.70
2018-08-03T09:10:40.002Z,29.80
2018-08-03T09:13:08.174Z,30.10
2018-08-03T09:15:36.283Z,30.30
2018-08-03T09:18:04.475Z,30.40
2018-08-03T09:20:32.648Z,30.40
2018-08-03T09:23:00.853Z,30.30
2018-08-03T09:25:28.990Z,30.30
2018-08-03T09:27:57.181Z,30.40
2018-08-03T09:30:26.228Z,30.40
2018-08-03T09:32:54.364Z,30.70
2018-08-03T09:35:22.502Z,31.10
2018-08-03T09:37:50.936Z,31.50
2018-08-03T09:40:19.120Z,31.70
2018-08-03T09:42:47.330Z,31.80
2018-08-03T09:45:15.420Z,32.10
2018-08-03T09:47:43.549Z,32.50
2018-08-03T09:50:11.707Z,32.40
2018-08-03T09:52:39.861Z,32.70
2018-08-03T09:55:08.091Z,33.10
2018-08-03T09:57:36.184Z,33.30
2018-08-03T10:00:04.641Z,33.30
2018-08-03T10:02:32.840Z,33.20
2018-08-03T10:05:01.012Z,33.00
2018-08-03T10:07:29.337Z,33.40
2018-08-03T10:09:57.439Z,33.60
2018-08-03T10:12:25.607Z,33.80
2018-08-03T10:14:53.790Z,33.90
2018-08-03T10:17:21.928Z,34.30
2018-08-03T10:19:50.069Z,34.50
2018-08-03T10:22:18.223Z,34.30
2018-08-03T10:24:46.363Z,34.10
2018-08-03T10:27:14.515Z,33.80
2018-08-03T10:29:42.743Z,33.80
2018-08-03T10:32:10.857Z,33.70
2018-08-03T10:34:39.060Z,33.90
2018-08-03T10:37:07.207Z,34.20
2018-08-03T10:39:35.380Z,34.30
2018-08-03T10:42:03.559Z,34.50
2018-08-03T10:44:31.697Z,34.50
2018-08-03T10:46:59.890Z,34.50
2018-08-03T10:49:28.020Z,34.20
2018-08-03T10:51:56.218Z,34.00
2018-08-03T10:54:24.392Z,33.40
2018-08-03T10:56:52.547Z,33.30
2018-08-03T10:59:20.733Z,33.30
2018-08-03T11:01:48.870Z,33.20
2018-08-03T11:04:17.071Z,33.20
2018-08-03T11:06:45.250Z,33.20
2018-08-03T11:09:13.368Z,33.20
2018-08-03T11:11:41.520Z,33.00
2018-08-03T11:14:09.689Z,33.10
2018-08-03T11:16:37.843Z,33.10
2018-08-03T11:19:05.991Z,33.10
2018-08-03T11:21:34.130Z,33.20
2018-08-03T11:24:02.615Z,33.00
2018-08-03T11:26:30.724Z,32.90
2018-08-03T11:28:58.955Z,32.70
2018-08-03T11:31:27.131Z,32.80
2018-08-03T11:33:55.288Z,33.00
2018-08-03T11:36:23.423Z,33.10
2018-08-03T11:38:51.605Z,33.00
2018-08-03T11:41:19.771Z,33.00
2018-08-03T11:43:47.909Z,33.00
2018-08-03T11:46:16.069Z,33.00
2018-08-03T11:48:44.259Z,32.80
2018-08-03T11:51:12.412Z,32.80
2018-08-03T11:53:40.829Z,32.70
2018-08-03T11:56:08.963Z,32.80
2018-08-03T11:58:37.180Z,32.80
2018-08-03T12:01:05.307Z,33.00
2018-08-03T12:03:33.470Z,32.90
2018-08-03T12:06:01.615Z,32.50
2018-08-03T12:08:29.795Z,32.20
2018-08-03T12:10:57.949Z,32.20
2018-08-03T12:13:26.131Z,32.20
2018-08-03T12:15:54.301Z,32.40
2018-08-03T12:18:22.458Z,32.50
2018-08-03T12:20:50.619Z,32.50
2018-08-03T12:23:18.779Z,32.70
2018-08-03T12:25:46.915Z,32.80
2018-08-03T12:28:15.071Z,33.00
2018-08-03T12:30:43.241Z,33.10
2018-08-03T12:33:11.391Z,33.20
2018-08-03T12:35:39.572Z,33.00
2018-08-03T12:38:07.731Z,32.90
2018-08-03T12:40:35.875Z,32.80
2018-08-03T12:43:04.042Z,32.50
2018-08-03T12:45:34.145Z,32.50
2018-08-03T12:48:00.987Z,32.50
2018-08-03T12:50:29.160Z,32.60
2018-08-03T12:52:57.384Z,32.70
2018-08-03T12:55:25.525Z,32.70
2018-08-03T12:57:53.664Z,32.70
2018-08-03T13:00:21.832Z,32.90
2018-08-03T13:02:49.996Z,33.10
2018-08-03T13:05:18.162Z,33.20
2018-08-03T13:07:46.412Z,33.20
2018-08-03T13:10:14.446Z,33.10
2018-08-03T13:12:42.604Z,33.10
2018-08-03T13:15:10.784Z,33.10
2018-08-03T13:17:38.902Z,33.10
2018-08-03T13:20:07.293Z,33.10
2018-08-03T13:22:35.421Z,33.20
2018-08-03T13:25:03.681Z,33.20
2018-08-03T13:27:31.873Z,33.10
2018-08-03T13:29:59.992Z,33.10
2018-08-03T13:32:29.121Z,33.00
2018-08-03T13:34:57.326Z,32.90
2018-08-03T13:37:25.506Z,32.70
2018-08-03T13:39:53.810Z,32.50
2018-08-03T13:42:21.947Z,32.40
2018-08-03T13:44:50.156Z,32.30
2018-08-03T13:47:18.404Z,32.20
2018-08-03T13:49:46.594Z,32.30
2018-08-03T13:52:14.724Z,32.40
2018-08-03T13:54:42.898Z,32.50
2018-08-03T13:57:11.048Z,32.70
2018-08-03T13:59:39.227Z,33.00
2018-08-03T14:02:17.877Z,33.20
2018-08-03T14:04:46.035Z,33.40
2018-08-03T14:07:14.192Z,33.20
2018-08-03T14:09:42.351Z,33.30
2018-08-03T14:12:10.535Z,33.40
2018-08-03T14:14:39.213Z,33.60
2018-08-03T14:17:07.402Z,33.60
2018-08-03T14:19:35.659Z,33.60
2018-08-03T14:22:04.002Z,33.40
2018-08-03T14:24:32.185Z,33.40
2018-08-03T14:27:00.308Z,33.60
2018-08-03T14:29:28.531Z,33.60
2018-08-03T14:31:56.670Z,33.60
2018-08-03T14:34:24.821Z,33.60
2018-08-03T14:36:52.972Z,33.50
2018-08-03T14:39:21.111Z,33.40
2018-08-03T14:41:49.266Z,33.40
2018-08-03T14:44:17.433Z,33.50
2018-08-03T14:46:45.592Z,33.50
2018-08-03T14:49:13.756Z,33.60
2018-08-03T14:51:41.920Z,33.70
2018-08-03T14:54:10.152Z,33.80
2018-08-03T14:56:38.358Z,33.90
2018-08-03T14:59:06.511Z,33.90
2018-08-03T15:01:34.734Z,33.90
2018-08-03T15:04:02.906Z,33.90
2018-08-03T15:06:31.085Z,33.80
2018-08-03T15:08:59.241Z,33.60
2018-08-03T15:11:27.415Z,33.60
2018-08-03T15:13:55.578Z,33.50
2018-08-03T15:16:23.881Z,33.50
2018-08-03T15:18:52.075Z,33.60
2018-08-03T15:21:20.251Z,33.60
2018-08-03T15:23:48.446Z,33.80
2018-08-03T15:26:16.649Z,33.90
2018-08-03T15:28:45.958Z,34.00
2018-08-03T15:31:14.148Z,34.00
2018-08-03T15:33:42.351Z,34.00
2018-08-03T15:36:10.529Z,33.90
2018-08-03T15:38:38.700Z,33.90
2018-08-03T15:41:06.992Z,34.00
2018-08-03T15:43:35.142Z,34.00
2018-08-03T15:46:03.351Z,34.00
2018-08-03T15:48:31.503Z,34.00
2018-08-03T15:50:59.682Z,33.80
2018-08-03T15:53:27.851Z,33.80
2018-08-03T15:55:56.018Z,33.80
2018-08-03T15:58:24.167Z,33.90
2018-08-03T16:00:52.346Z,33.90
2018-08-03T16:03:20.520Z,33.90
2018-08-03T16:05:48.721Z,33.90
2018-08-03T16:08:16.872Z,33.90
2018-08-03T16:10:45.038Z,33.90
2018-08-03T16:13:13.195Z,34.00
2018-08-03T16:15:41.331Z,34.10
2018-08-03T16:18:09.492Z,34.10
2018-08-03T16:20:37.743Z,33.90
2018-08-03T16:23:05.837Z,33.70
2018-08-03T16:25:34.106Z,33.60
2018-08-03T16:28:02.197Z,33.80
2018-08-03T16:30:30.354Z,34.20
2018-08-03T16:32:58.896Z,34.00
2018-08-03T16:35:27.117Z,34.10
2018-08-03T16:37:55.304Z,34.30
2018-08-03T16:40:23.451Z,34.40
2018-08-03T16:42:51.600Z,34.30
2018-08-03T16:45:19.760Z,34.10
2018-08-03T16:47:47.938Z,34.10
2018-08-03T16:50:16.100Z,34.10
2018-08-03T16:52:44.340Z,34.10
2018-08-03T16:55:12.469Z,34.10
2018-08-03T16:57:40.632Z,34.10
2018-08-03T17:00:08.832Z,34.10
2018-08-03T17:02:36.946Z,34.00
2018-08-03T17:05:05.251Z,34.00
2018-08-03T17:07:33.405Z,33.80
2018-08-03T17:10:01.568Z,33.80
2018-08-03T17:12:29.714Z,33.80
2018-08-03T17:14:57.876Z,33.80
2018-08-03T17:17:26.042Z,33.70
2018-08-03T17:19:54.219Z,33.60
2018-08-03T17:22:22.356Z,33.60
2018-08-03T17:24:50.515Z,33.60
2018-08-03T17:27:18.696Z,33.70
2018-08-03T17:29:46.884Z,33.50
2018-08-03T17:32:15.037Z,33.60
2018-08-03T17:34:43.183Z,34.00
2018-08-03T17:37:11.352Z,34.40
2018-08-03T17:39:39.531Z,34.60
2018-08-03T17:42:07.720Z,34.50
2018-08-03T17:44:35.890Z,34.20
2018-08-03T17:47:04.084Z,34.10
2018-08-03T17:49:32.289Z,33.90
2018-08-03T17:52:00.511Z,33.70
2018-08-03T17:54:28.685Z,33.90
2018-08-03T17:56:56.888Z,33.90
2018-08-03T17:59:25.072Z,34.00
2018-08-03T18:01:53.240Z,34.20
2018-08-03T18:04:21.492Z,34.10
2018-08-03T18:06:49.656Z,34.30
2018-08-03T18:09:17.840Z,34.30
2018-08-03T18:11:45.992Z,34.20
2018-08-03T18:14:14.176Z,34.10
2018-08-03T18:16:42.373Z,33.70
2018-08-03T18:19:10.527Z,33.40
2018-08-03T18:21:38.739Z,33.10
2018-08-03T18:24:06.870Z,32.90
2018-08-03T18:26:35.124Z,32.70
2018-08-03T18:29:03.315Z,32.40
2018-08-03T18:31:31.460Z,32.10
2018-08-03T18:33:59.620Z,31.90
2018-08-03T18:36:27.775Z,31.70
2018-08-03T18:38:55.930Z,31.70
2018-08-03T18:41:24.074Z,31.50
2018-08-03T18:43:52.255Z,31.40
2018-08-03T18:46:21.100Z,31.10
2018-08-03T18:48:49.432Z,30.70
2018-08-03T18:51:17.564Z,30.30
2018-08-03T18:53:45.789Z,29.90
2018-08-03T18:56:14.007Z,29.60
2018-08-03T18:58:42.184Z,29.40
2018-08-03T19:01:10.524Z,29.10
2018-08-03T19:03:38.703Z,28.90
2018-08-03T19:06:07.031Z,28.70
2018-08-03T19:08:35.221Z,28.40
2018-08-03T19:11:03.448Z,28.20
2018-08-03T19:13:31.592Z,28.00
2018-08-03T19:15:59.722Z,27.80
2018-08-03T19:18:27.882Z,27.50
2018-08-03T19:20:56.046Z,27.30
2018-08-03T19:23:24.232Z,27.20
2018-08-03T19:25:52.417Z,27.00
2018-08-03T19:28:20.688Z,26.90
2018-08-03T19:30:48.844Z,26.80
2018-08-03T19:33:17.035Z,26.70
2018-08-03T19:35:45.204Z,26.50
2018-08-03T19:38:13.576Z,26.40
2018-08-03T19:40:42.227Z,26.20
2018-08-03T19:43:10.504Z,26.10
2018-08-03T19:45:38.736Z,26.00
2018-08-03T19:48:06.907Z,25.80
2018-08-03T19:50:35.083Z,25.70
2018-08-03T19:53:03.280Z,25.60
2018-08-03T19:55:31.606Z,25.50
2018-08-03T19:57:59.827Z,25.40
2018-08-03T20:00:27.963Z,25.30
2018-08-03T20:02:56.174Z,25.20
2018-08-03T20:05:24.331Z,25.10
2018-08-03T20:07:52.494Z,25.10
2018-08-03T20:10:20.947Z,25.00
2018-08-03T20:12:49.167Z,24.90
2018-08-03T20:15:17.485Z,24.80
2018-08-03T20:17:45.736Z,24.70
2018-08-03T20:20:13.952Z,24.60
2018-08-03T20:22:42.202Z,24.50
2018-08-03T20:25:10.458Z,24.40
2018-08-03T20:27:38.791Z,24.30
2018-08-03T20:30:07.446Z,24.30
2018-08-03T20:32:35.631Z,24.20
2018-08-03T20:35:03.820Z,24.20
2018-08-03T20:37:32.017Z,24.10
2018-08-03T20:40:00.148Z,24.00
2018-08-03T20:42:28.284Z,23.90
2018-08-03T20:44:56.436Z,23.80
2018-08-03T20:47:24.606Z,23.80
2018-08-03T20:49:52.754Z,23.70
2018-08-03T20:52:20.940Z,23.60
2018-08-03T20:54:49.150Z,23.50
2018-08-03T20:57:17.327Z,23.50
2018-08-03T20:59:45.481Z,23.40
2018-08-03T21:02:13.631Z,23.30
2018-08-03T21:04:41.815Z,23.20
2018-08-03T21:07:09.978Z,23.20
2018-08-03T21:09:38.823Z,23.20
2018-08-03T21:12:06.982Z,23.10
2018-08-03T21:14:35.144Z,23.00
2018-08-03T21:17:03.352Z,23.00
2018-08-03T21:19:31.498Z,22.90
2018-08-03T21:21:59.701Z,22.90
2018-08-03T21:24:27.877Z,22.80
2018-08-03T21:26:56.044Z,22.70
2018-08-03T21:29:24.239Z,22.60
2018-08-03T21:31:52.488Z,22.60
2018-08-03T21:34:20.664Z,22.50
2018-08-03T21:36:48.835Z,22.50
2018-08-03T21:39:17.007Z,22.40
2018-08-03T21:41:45.161Z,22.40
2018-08-03T21:44:13.318Z,22.30
2018-08-03T21:46:41.487Z,22.30
2018-08-03T21:49:09.647Z,22.30
2018-08-03T21:51:37.795Z,22.20
2018-08-03T21:54:05.961Z,22.20
2018-08-03T21:56:34.112Z,22.10
2018-08-03T21:59:02.379Z,22.00
2018-08-03T22:01:30.524Z,22.00
2018-08-03T22:03:58.755Z,22.00
2018-08-03T22:06:26.922Z,22.00
2018-08-03T22:08:55.098Z,21.90
2018-08-03T22:11:23.246Z,21.80
2018-08-03T22:13:51.412Z,21.80
2018-08-03T22:16:19.561Z,21.70
2018-08-03T22:18:47.738Z,21.70
2018-08-03T22:21:15.872Z,21.60
2018-08-03T22:23:44.013Z,21.60
2018-08-03T22:26:12.162Z,21.60
2018-08-03T22:28:40.338Z,21.60
2018-08-03T22:31:08.521Z,21.60
2018-08-03T22:33:36.677Z,21.60
2018-08-03T22:36:04.841Z,21.50
2018-08-03T22:38:33.008Z,21.50
2018-08-03T22:41:01.160Z,21.50
2018-08-03T22:43:29.326Z,21.40
2018-08-03T22:45:57.511Z,21.40
2018-08-03T22:48:25.664Z,21.40
2018-08-03T22:50:53.848Z,21.30
2018-08-03T22:53:22.027Z,21.30
2018-08-03T22:55:50.203Z,21.20
2018-08-03T22:58:18.377Z,21.20
2018-08-03T23:00:46.544Z,21.10
2018-08-03T23:03:14.739Z,21.10
2018-08-03T23:05:42.966Z,21.00
2018-08-03T23:08:11.192Z,21.00
2018-08-03T23:10:39.346Z,20.90
2018-08-03T23:13:07.512Z,20.90
2018-08-03T23:15:35.689Z,20.90
2018-08-03T23:18:03.847Z,20.80
2018-08-03T23:20:32.003Z,20.80
2018-08-03T23:23:00.182Z,20.80
2018-08-03T23:25:28.359Z,20.70
2018-08-03T23:27:56.558Z,20.70
2018-08-03T23:30:24.754Z,20.70
2018-08-03T23:32:53.023Z,20.60
2018-08-03T23:35:21.200Z,20.60
2018-08-03T23:37:49.357Z,20.50
2018-08-03T23:40:17.516Z,20.50
2018-08-03T23:42:45.664Z,20.40
2018-08-03T23:45:14.183Z,20.40
2018-08-03T23:47:42.350Z,20.40
2018-08-03T23:50:14.063Z,20.40
2018-08-03T23:52:43.379Z,20.30
2018-08-03T23:55:11.583Z,20.30
2018-08-03T23:57:39.766Z,20.20
